EIN39P EDDF-EIDW
Flight info
| Callsign | EIN39P |
|---|---|
| Flight time | N/A |
| Altitude | 38000 |
| Route | OBOKA2E/07C OBOKA Z28 DIBIR DCT BUDIP DCT RAVLO Y70 OTBED L60 PENIL UL28 LELDO M145 BAGSO BAGSO2R |
| Aircraft | A20N/M-SDE2E3FGHIRWXY/LB1 |
Departure
| Time | 2026-04-14 16:05 |
|---|---|
| Airport | Frankfurt Main Airport (EDDF) |
Arrival
| Time | N/A |
|---|---|
| Airport | Dublin Airport (EIDW) |
| Time | Latitude | Longitude | Altitude | Speed | Heading |
|---|---|---|---|---|---|
| 2026-04-14 15:34 | 50.05159 | 8.59072 | 359 ft | 0 kts | 340° |
| 2026-04-14 15:48 | 50.05158 | 8.59073 | 359 ft | 1 kts | 340° |
| 2026-04-14 15:49 | 50.05151 | 8.59076 | 359 ft | 1 kts | 340° |
| 2026-04-14 15:49 | 50.05142 | 8.59082 | 363 ft | 2 kts | 336° |
| 2026-04-14 15:49 | 50.05132 | 8.59089 | 362 ft | 2 kts | 328° |
| 2026-04-14 15:49 | 50.05117 | 8.59103 | 359 ft | 3 kts | 327° |
| 2026-04-14 15:50 | 50.05102 | 8.59120 | 359 ft | 3 kts | 309° |
| 2026-04-14 15:50 | 50.05090 | 8.59145 | 359 ft | 3 kts | 298° |
| 2026-04-14 15:50 | 50.05081 | 8.59176 | 363 ft | 3 kts | 285° |
| 2026-04-14 15:50 | 50.05080 | 8.59195 | 361 ft | 0 kts | 245° |
| 2026-04-14 15:53 | 50.05075 | 8.59180 | 364 ft | 7 kts | 245° |
| 2026-04-14 15:54 | 50.04997 | 8.58868 | 362 ft | 22 kts | 250° |
| 2026-04-14 15:54 | 50.04933 | 8.58687 | 366 ft | 16 kts | 193° |
| 2026-04-14 15:54 | 50.04893 | 8.58684 | 361 ft | 5 kts | 157° |
| 2026-04-14 15:55 | 50.04822 | 8.58729 | 364 ft | 13 kts | 159° |
| 2026-04-14 15:55 | 50.04739 | 8.58738 | 372 ft | 11 kts | 209° |
| 2026-04-14 15:55 | 50.04703 | 8.58637 | 368 ft | 12 kts | 245° |
| 2026-04-14 15:55 | 50.04661 | 8.58504 | 369 ft | 15 kts | 243° |
| 2026-04-14 15:56 | 50.04618 | 8.58341 | 369 ft | 18 kts | 249° |
| 2026-04-14 15:56 | 50.04566 | 8.58137 | 365 ft | 23 kts | 249° |
| 2026-04-14 15:56 | 50.04506 | 8.57893 | 367 ft | 25 kts | 250° |
| 2026-04-14 15:56 | 50.04446 | 8.57635 | 365 ft | 22 kts | 250° |
| 2026-04-14 15:57 | 50.04391 | 8.57387 | 365 ft | 26 kts | 250° |
| 2026-04-14 15:57 | 50.04349 | 8.57215 | 364 ft | 17 kts | 249° |
| 2026-04-14 15:57 | 50.04300 | 8.57005 | 361 ft | 24 kts | 251° |
| 2026-04-14 15:57 | 50.04251 | 8.56795 | 363 ft | 22 kts | 249° |
| 2026-04-14 15:58 | 50.04200 | 8.56586 | 357 ft | 22 kts | 249° |
| 2026-04-14 15:58 | 50.04145 | 8.56348 | 357 ft | 25 kts | 251° |
| 2026-04-14 15:58 | 50.04094 | 8.56115 | 358 ft | 18 kts | 248° |
| 2026-04-14 15:58 | 50.04045 | 8.55917 | 355 ft | 21 kts | 250° |
| 2026-04-14 15:59 | 50.03995 | 8.55685 | 352 ft | 24 kts | 249° |
| 2026-04-14 15:59 | 50.03941 | 8.55503 | 355 ft | 17 kts | 231° |
| 2026-04-14 15:59 | 50.03926 | 8.55491 | 351 ft | 0 kts | 187° |
| 2026-04-14 16:01 | 50.03920 | 8.55490 | 351 ft | 4 kts | 186° |
| 2026-04-14 16:02 | 50.03870 | 8.55500 | 357 ft | 10 kts | 168° |
| 2026-04-14 16:02 | 50.03788 | 8.55536 | 353 ft | 14 kts | 165° |
| 2026-04-14 16:02 | 50.03768 | 8.55575 | 355 ft | 0 kts | 82° |
| 2026-04-14 16:04 | 50.03769 | 8.55583 | 348 ft | 0 kts | 71° |
| 2026-04-14 16:04 | 50.03826 | 8.55820 | 358 ft | 66 kts | 69° |
| 2026-04-14 16:05 | 50.04090 | 8.56913 | 363 ft | 145 kts | 69° |
| 2026-04-14 16:05 | 50.04494 | 8.58568 | 807 ft | 173 kts | 68° |
| 2026-04-14 16:05 | 50.04887 | 8.60236 | 1782 ft | 164 kts | 68° |
| 2026-04-14 16:05 | 50.05277 | 8.61931 | 2724 ft | 167 kts | 68° |
| 2026-04-14 16:06 | 50.05951 | 8.63464 | 3290 ft | 182 kts | 34° |
| 2026-04-14 16:06 | 50.07199 | 8.64080 | 3814 ft | 201 kts | 3° |
| 2026-04-14 16:06 | 50.08642 | 8.63949 | 4486 ft | 215 kts | 354° |
| 2026-04-14 16:06 | 50.10144 | 8.63650 | 4615 ft | 214 kts | 353° |
| 2026-04-14 16:07 | 50.11140 | 8.63472 | 4698 ft | 227 kts | 355° |
| 2026-04-14 16:07 | 50.12753 | 8.63256 | 4986 ft | 234 kts | 356° |
| 2026-04-14 16:07 | 50.14387 | 8.63101 | 5237 ft | 236 kts | 357° |
| 2026-04-14 16:07 | 50.16036 | 8.62976 | 5194 ft | 235 kts | 358° |
| 2026-04-14 16:08 | 50.17666 | 8.62871 | 5219 ft | 236 kts | 358° |
| 2026-04-14 16:08 | 50.19311 | 8.62768 | 5488 ft | 236 kts | 358° |
| 2026-04-14 16:08 | 50.20954 | 8.62667 | 5798 ft | 238 kts | 358° |
| 2026-04-14 16:08 | 50.22617 | 8.62561 | 6149 ft | 240 kts | 358° |
| 2026-04-14 16:09 | 50.24289 | 8.62451 | 6484 ft | 240 kts | 358° |
| 2026-04-14 16:09 | 50.25972 | 8.62340 | 6837 ft | 246 kts | 358° |
| 2026-04-14 16:09 | 50.27751 | 8.62222 | 7073 ft | 266 kts | 358° |
| 2026-04-14 16:09 | 50.29615 | 8.62097 | 7160 ft | 267 kts | 357° |
| 2026-04-14 16:10 | 50.31420 | 8.61522 | 7197 ft | 269 kts | 335° |
| 2026-04-14 16:10 | 50.32898 | 8.59739 | 7217 ft | 272 kts | 308° |
| 2026-04-14 16:10 | 50.33721 | 8.57060 | 7638 ft | 277 kts | 288° |
| 2026-04-14 16:10 | 50.34320 | 8.54195 | 8679 ft | 276 kts | 288° |
| 2026-04-14 16:11 | 50.34944 | 8.51337 | 9727 ft | 279 kts | 288° |
| 2026-04-14 16:11 | 50.35584 | 8.48429 | 10563 ft | 288 kts | 288° |
| 2026-04-14 16:11 | 50.36259 | 8.45338 | 10987 ft | 311 kts | 288° |
| 2026-04-14 16:11 | 50.36966 | 8.42080 | 11357 ft | 332 kts | 288° |
| 2026-04-14 16:12 | 50.37610 | 8.38494 | 12124 ft | 338 kts | 278° |
| 2026-04-14 16:12 | 50.37669 | 8.34896 | 12886 ft | 344 kts | 264° |
| 2026-04-14 16:12 | 50.37107 | 8.31216 | 13651 ft | 352 kts | 252° |
| 2026-04-14 16:12 | 50.36345 | 8.27529 | 14380 ft | 358 kts | 253° |
| 2026-04-14 16:13 | 50.35611 | 8.23895 | 15161 ft | 359 kts | 253° |
| 2026-04-14 16:13 | 50.34853 | 8.20108 | 15974 ft | 362 kts | 253° |
| 2026-04-14 16:13 | 50.34102 | 8.16336 | 16754 ft | 364 kts | 253° |
| 2026-04-14 16:13 | 50.33342 | 8.12527 | 17519 ft | 368 kts | 253° |
| 2026-04-14 16:14 | 50.32574 | 8.08695 | 18248 ft | 371 kts | 253° |
| 2026-04-14 16:14 | 50.31795 | 8.04822 | 18913 ft | 375 kts | 253° |
| 2026-04-14 16:14 | 50.31011 | 8.00928 | 19542 ft | 378 kts | 253° |
| 2026-04-14 16:14 | 50.30215 | 7.96985 | 20175 ft | 381 kts | 253° |
| 2026-04-14 16:15 | 50.29699 | 7.92921 | 20783 ft | 383 kts | 268° |
| 2026-04-14 16:15 | 50.29913 | 7.88772 | 21378 ft | 385 kts | 283° |
| 2026-04-14 16:15 | 50.30837 | 7.84828 | 21995 ft | 388 kts | 295° |
| 2026-04-14 16:15 | 50.31977 | 7.80978 | 22592 ft | 391 kts | 295° |
| 2026-04-14 16:16 | 50.33115 | 7.77096 | 23200 ft | 395 kts | 295° |
| 2026-04-14 16:16 | 50.34253 | 7.73179 | 23802 ft | 397 kts | 295° |
| 2026-04-14 16:16 | 50.35591 | 7.69379 | 24303 ft | 400 kts | 306° |
| 2026-04-14 16:16 | 50.37498 | 7.66222 | 24791 ft | 402 kts | 321° |
| 2026-04-14 16:17 | 50.39887 | 7.63923 | 25291 ft | 405 kts | 335° |
| 2026-04-14 16:17 | 50.42483 | 7.62157 | 25784 ft | 408 kts | 336° |
| 2026-04-14 16:17 | 50.45095 | 7.60376 | 26273 ft | 410 kts | 336° |
| 2026-04-14 16:17 | 50.47712 | 7.58578 | 26728 ft | 412 kts | 336° |
| 2026-04-14 16:18 | 50.50348 | 7.56759 | 27188 ft | 414 kts | 336° |
| 2026-04-14 16:18 | 50.52993 | 7.54928 | 27657 ft | 416 kts | 336° |
| 2026-04-14 16:18 | 50.55625 | 7.53004 | 28071 ft | 419 kts | 332° |
| 2026-04-14 16:18 | 50.58126 | 7.50619 | 28479 ft | 421 kts | 326° |
| 2026-04-14 16:19 | 50.60574 | 7.48075 | 28899 ft | 423 kts | 327° |
| 2026-04-14 16:19 | 50.63041 | 7.45547 | 29291 ft | 425 kts | 327° |
| 2026-04-14 16:19 | 50.65457 | 7.43079 | 29661 ft | 427 kts | 327° |
| 2026-04-14 16:19 | 50.67978 | 7.40501 | 29997 ft | 430 kts | 327° |
| 2026-04-14 16:20 | 50.70493 | 7.37921 | 30369 ft | 431 kts | 327° |
| 2026-04-14 16:20 | 50.72902 | 7.35096 | 30700 ft | 433 kts | 320° |
| 2026-04-14 16:20 | 50.75082 | 7.31813 | 31003 ft | 436 kts | 313° |
| 2026-04-14 16:20 | 50.77025 | 7.28103 | 31319 ft | 438 kts | 307° |
| 2026-04-14 16:21 | 50.78748 | 7.24206 | 31732 ft | 437 kts | 306° |
| 2026-04-14 16:21 | 50.80521 | 7.20240 | 32185 ft | 435 kts | 306° |
| 2026-04-14 16:21 | 50.82274 | 7.16337 | 32623 ft | 434 kts | 306° |
| 2026-04-14 16:21 | 50.84014 | 7.12454 | 33009 ft | 433 kts | 306° |
| 2026-04-14 16:22 | 50.85749 | 7.08566 | 33434 ft | 432 kts | 306° |
| 2026-04-14 16:22 | 50.87457 | 7.04726 | 33837 ft | 430 kts | 306° |
| 2026-04-14 16:22 | 50.89196 | 7.00806 | 34216 ft | 430 kts | 306° |
| 2026-04-14 16:22 | 50.90897 | 6.96966 | 34482 ft | 430 kts | 306° |
| 2026-04-14 16:23 | 50.92612 | 6.93089 | 34758 ft | 430 kts | 306° |
| 2026-04-14 16:23 | 50.94326 | 6.89212 | 35009 ft | 430 kts | 306° |
| 2026-04-14 16:23 | 50.96046 | 6.85315 | 35267 ft | 431 kts | 305° |
| 2026-04-14 16:23 | 50.97770 | 6.81403 | 35483 ft | 432 kts | 305° |
| 2026-04-14 16:24 | 50.99482 | 6.77512 | 35732 ft | 432 kts | 305° |
| 2026-04-14 16:24 | 51.01199 | 6.73602 | 35986 ft | 432 kts | 305° |
| 2026-04-14 16:24 | 51.02916 | 6.69685 | 36221 ft | 432 kts | 304° |
| 2026-04-14 16:24 | 51.04635 | 6.65759 | 36434 ft | 433 kts | 304° |
| 2026-04-14 16:25 | 51.06349 | 6.61838 | 36685 ft | 432 kts | 304° |
| 2026-04-14 16:25 | 51.08066 | 6.57903 | 36914 ft | 432 kts | 304° |
| 2026-04-14 16:25 | 51.09781 | 6.53967 | 37142 ft | 432 kts | 304° |
| 2026-04-14 16:25 | 51.11489 | 6.50040 | 37341 ft | 433 kts | 304° |
| 2026-04-14 16:26 | 51.13191 | 6.46118 | 37563 ft | 432 kts | 304° |
| 2026-04-14 16:26 | 51.14908 | 6.42159 | 37794 ft | 432 kts | 304° |
| 2026-04-14 16:26 | 51.16607 | 6.38233 | 38000 ft | 432 kts | 304° |
| 2026-04-14 16:26 | 51.18314 | 6.34283 | 38167 ft | 432 kts | 304° |
| 2026-04-14 16:27 | 51.20017 | 6.30335 | 38218 ft | 431 kts | 304° |
| 2026-04-14 16:27 | 51.23405 | 6.22468 | 38224 ft | 430 kts | 303° |
| 2026-04-14 16:28 | 51.26782 | 6.14602 | 38216 ft | 429 kts | 303° |
| 2026-04-14 16:28 | 51.30088 | 6.06739 | 38221 ft | 429 kts | 302° |
| 2026-04-14 16:29 | 51.33336 | 5.98742 | 38213 ft | 428 kts | 302° |
| 2026-04-14 16:29 | 51.36568 | 5.90809 | 38209 ft | 428 kts | 303° |
| 2026-04-14 16:30 | 51.40293 | 5.83476 | 38196 ft | 428 kts | 313° |
| 2026-04-14 16:30 | 51.44411 | 5.76579 | 38192 ft | 428 kts | 312° |
| 2026-04-14 16:31 | 51.48507 | 5.69633 | 38184 ft | 428 kts | 312° |
| 2026-04-14 16:31 | 51.52600 | 5.62695 | 38187 ft | 428 kts | 312° |
| 2026-04-14 16:32 | 51.56689 | 5.55752 | 38180 ft | 428 kts | 311° |
| 2026-04-14 16:32 | 51.60779 | 5.48786 | 38180 ft | 428 kts | 311° |
| 2026-04-14 16:33 | 51.64863 | 5.41813 | 38182 ft | 429 kts | 311° |
| 2026-04-14 16:33 | 51.68954 | 5.34806 | 38198 ft | 429 kts | 311° |
| 2026-04-14 16:34 | 51.73041 | 5.27788 | 38200 ft | 429 kts | 311° |
| 2026-04-14 16:34 | 51.77102 | 5.20794 | 38199 ft | 430 kts | 311° |
| 2026-04-14 16:35 | 51.81188 | 5.13737 | 38198 ft | 431 kts | 311° |
| 2026-04-14 16:35 | 51.85286 | 5.06639 | 38198 ft | 431 kts | 311° |
| 2026-04-14 16:36 | 51.89380 | 4.99530 | 38203 ft | 432 kts | 311° |
| 2026-04-14 16:36 | 51.93469 | 4.92408 | 38213 ft | 432 kts | 311° |
| 2026-04-14 16:37 | 51.97023 | 4.86200 | 38207 ft | 432 kts | 311° |
| 2026-04-14 16:37 | 51.99240 | 4.82320 | 38218 ft | 433 kts | 310° |
| 2026-04-14 16:38 | 52.03134 | 4.75490 | 38209 ft | 433 kts | 310° |
| 2026-04-14 16:38 | 52.07280 | 4.68197 | 38213 ft | 433 kts | 310° |
| 2026-04-14 16:39 | 52.11360 | 4.61001 | 38219 ft | 433 kts | 310° |
| 2026-04-14 16:39 | 52.15412 | 4.53831 | 38219 ft | 433 kts | 310° |
| 2026-04-14 16:40 | 52.19483 | 4.46609 | 38216 ft | 432 kts | 310° |
| 2026-04-14 16:40 | 52.23549 | 4.39374 | 38221 ft | 432 kts | 310° |
| 2026-04-14 16:41 | 52.27607 | 4.32131 | 38219 ft | 432 kts | 310° |
| 2026-04-14 16:41 | 52.31654 | 4.24888 | 38212 ft | 432 kts | 310° |
| 2026-04-14 16:42 | 52.35698 | 4.17629 | 38215 ft | 431 kts | 310° |
| 2026-04-14 16:42 | 52.39737 | 4.10355 | 38210 ft | 431 kts | 309° |
| 2026-04-14 16:43 | 52.43753 | 4.03103 | 38209 ft | 431 kts | 309° |
| 2026-04-14 16:43 | 52.47753 | 3.95860 | 38206 ft | 431 kts | 309° |
| 2026-04-14 16:44 | 52.51789 | 3.88530 | 38205 ft | 430 kts | 309° |
| 2026-04-14 16:44 | 52.55776 | 3.81266 | 38202 ft | 431 kts | 309° |
| 2026-04-14 16:45 | 52.61789 | 3.70272 | 38205 ft | 431 kts | 309° |
| 2026-04-14 16:45 | 52.65786 | 3.62936 | 38206 ft | 431 kts | 309° |
| 2026-04-14 16:46 | 52.69791 | 3.55565 | 38208 ft | 431 kts | 309° |
| 2026-04-14 16:46 | 52.73793 | 3.48176 | 38201 ft | 432 kts | 309° |
| 2026-04-14 16:47 | 52.77692 | 3.40958 | 38198 ft | 432 kts | 308° |
| 2026-04-14 16:47 | 52.81696 | 3.33521 | 38192 ft | 433 kts | 308° |
| 2026-04-14 16:48 | 52.85695 | 3.26073 | 38184 ft | 433 kts | 308° |
| 2026-04-14 16:48 | 52.89485 | 3.18359 | 38181 ft | 430 kts | 300° |
| 2026-04-14 16:49 | 52.92147 | 3.09566 | 38180 ft | 426 kts | 287° |
| 2026-04-14 16:49 | 52.93605 | 3.00165 | 38180 ft | 424 kts | 280° |
| 2026-04-14 16:50 | 52.94874 | 2.90639 | 38187 ft | 425 kts | 281° |
| 2026-04-14 16:50 | 52.96144 | 2.81046 | 38188 ft | 425 kts | 280° |
| 2026-04-14 16:51 | 52.97183 | 2.73057 | 38182 ft | 426 kts | 280° |
| 2026-04-14 16:51 | 52.98622 | 2.61905 | 38180 ft | 426 kts | 280° |
| 2026-04-14 16:52 | 52.99657 | 2.53818 | 38186 ft | 426 kts | 280° |
| 2026-04-14 16:52 | 53.00884 | 2.44173 | 38180 ft | 427 kts | 280° |
| 2026-04-14 16:53 | 53.02102 | 2.34529 | 38178 ft | 427 kts | 280° |
| 2026-04-14 16:53 | 53.03314 | 2.24873 | 38171 ft | 427 kts | 280° |
| 2026-04-14 16:54 | 53.04515 | 2.15226 | 38171 ft | 427 kts | 280° |
| 2026-04-14 16:54 | 53.05705 | 2.05609 | 38171 ft | 427 kts | 279° |
| 2026-04-14 16:55 | 53.06898 | 1.95877 | 38155 ft | 427 kts | 279° |
| 2026-04-14 16:55 | 53.08078 | 1.86206 | 38158 ft | 426 kts | 279° |
| 2026-04-14 16:56 | 53.09242 | 1.76583 | 38150 ft | 426 kts | 279° |
| 2026-04-14 16:56 | 53.10409 | 1.66872 | 38141 ft | 426 kts | 279° |
| 2026-04-14 16:57 | 53.11562 | 1.57200 | 38132 ft | 425 kts | 279° |
| 2026-04-14 16:57 | 53.12699 | 1.47599 | 38120 ft | 425 kts | 279° |
| 2026-04-14 16:58 | 53.13833 | 1.37943 | 38116 ft | 424 kts | 279° |
| 2026-04-14 16:58 | 53.14953 | 1.28301 | 38106 ft | 424 kts | 278° |
| 2026-04-14 16:59 | 53.16048 | 1.18649 | 38108 ft | 424 kts | 279° |
| 2026-04-14 16:59 | 53.17156 | 1.09016 | 38100 ft | 424 kts | 279° |
| 2026-04-14 17:00 | 53.18263 | 0.99339 | 38097 ft | 424 kts | 279° |
| 2026-04-14 17:00 | 53.19365 | 0.89674 | 38096 ft | 424 kts | 279° |
| 2026-04-14 17:01 | 53.20457 | 0.80006 | 38091 ft | 425 kts | 279° |
| 2026-04-14 17:01 | 53.21540 | 0.70316 | 38090 ft | 425 kts | 279° |
| 2026-04-14 17:02 | 53.22616 | 0.60597 | 38092 ft | 426 kts | 279° |
| 2026-04-14 17:02 | 53.23687 | 0.50878 | 38085 ft | 426 kts | 279° |
| 2026-04-14 17:03 | 53.24755 | 0.41114 | 38086 ft | 427 kts | 279° |
| 2026-04-14 17:03 | 53.25809 | 0.31354 | 38080 ft | 427 kts | 279° |
| 2026-04-14 17:04 | 53.26856 | 0.21571 | 38071 ft | 428 kts | 278° |
| 2026-04-14 17:04 | 53.27892 | 0.11819 | 38063 ft | 429 kts | 279° |
| 2026-04-14 17:05 | 53.28924 | 0.02028 | 38064 ft | 426 kts | 278° |
| 2026-04-14 17:05 | 53.29942 | -0.07742 | 38072 ft | 426 kts | 278° |
| 2026-04-14 17:06 | 53.30951 | -0.17511 | 38065 ft | 426 kts | 278° |
| 2026-04-14 17:06 | 53.31950 | -0.27261 | 38055 ft | 424 kts | 279° |
| 2026-04-14 17:07 | 53.32938 | -0.36986 | 38055 ft | 424 kts | 278° |
| 2026-04-14 17:07 | 53.33919 | -0.46704 | 38050 ft | 423 kts | 279° |
| 2026-04-14 17:08 | 53.34896 | -0.56414 | 38054 ft | 422 kts | 279° |
| 2026-04-14 17:08 | 53.35862 | -0.66099 | 38052 ft | 421 kts | 279° |
| 2026-04-14 17:09 | 53.36815 | -0.75764 | 38046 ft | 421 kts | 278° |
| 2026-04-14 17:09 | 53.37752 | -0.85365 | 38043 ft | 420 kts | 278° |
| 2026-04-14 17:10 | 53.38686 | -0.95005 | 38038 ft | 419 kts | 278° |
| 2026-04-14 17:10 | 53.39606 | -1.04637 | 38041 ft | 418 kts | 278° |
| 2026-04-14 17:11 | 53.40520 | -1.14243 | 38034 ft | 417 kts | 278° |
| 2026-04-14 17:11 | 53.41425 | -1.23820 | 38036 ft | 416 kts | 278° |
| 2026-04-14 17:12 | 53.42318 | -1.33398 | 38028 ft | 415 kts | 278° |
| 2026-04-14 17:12 | 53.43200 | -1.42945 | 38028 ft | 414 kts | 278° |
| 2026-04-14 17:13 | 53.44077 | -1.52510 | 38025 ft | 414 kts | 278° |